Time;durP1;ratioP1;P1;durP2;ratioP2;P2;SDS_P1;SDS_P2;PMS_P1;PMS_P2;Temp;Humidity;BMP_temperature;BMP_pressure;BME280_temperature;BME280_humidity;BME280_pressure;Samples;Min_cycle;Max_cycle;Signal;HPM_P1;HPM_P2
2021/03/14 00:02:24;;;;;;;0.73;0.50;;;19.60;42.70;;;;;;5069339;28;20485;-71
2021/03/14 00:04:50;;;;;;;1.50;0.90;;;19.60;42.70;;;;;;5070322;28;21015;-70
2021/03/14 00:07:17;;;;;;;0.90;0.60;;;19.60;42.70;;;;;;5075586;28;20476;-70
2021/03/14 00:09:43;;;;;;;0.87;0.60;;;19.60;42.60;;;;;;5091922;27;20490;-71
2021/03/14 00:12:09;;;;;;;1.53;0.70;;;19.60;42.70;;;;;;5075820;28;20486;-71
2021/03/14 00:14:35;;;;;;;0.73;0.73;;;19.70;42.90;;;;;;5070943;28;20572;-70
2021/03/14 00:17:03;;;;;;;2.30;0.73;;;19.70;42.70;;;;;;5066976;28;20496;-71
2021/03/14 00:19:29;;;;;;;2.13;0.93;;;19.70;42.60;;;;;;5070613;28;20489;-72
2021/03/14 00:21:55;;;;;;;1.67;0.60;;;19.70;42.60;;;;;;5071036;28;20481;-71
2021/03/14 00:24:21;;;;;;;3.80;0.60;;;19.70;42.60;;;;;;5070424;28;20477;-70
2021/03/14 00:26:47;;;;;;;0.63;0.60;;;19.70;42.70;;;;;;5071992;28;20491;-71
2021/03/14 00:29:14;;;;;;;0.53;0.53;;;19.70;42.70;;;;;;5068395;28;20472;-72
2021/03/14 00:31:40;;;;;;;2.73;0.60;;;19.70;42.70;;;;;;5070238;28;20477;-71
2021/03/14 00:34:07;;;;;;;0.80;0.67;;;19.70;42.70;;;;;;5070238;28;20553;-72
2021/03/14 00:36:33;;;;;;;0.90;0.90;;;19.70;42.60;;;;;;5073554;28;20500;-70
2021/03/14 00:39:02;;;;;;;0.97;0.50;;;19.70;42.60;;;;;;5075784;28;20480;-71
2021/03/14 00:41:29;;;;;;;1.17;0.60;;;19.70;42.60;;;;;;5068805;28;20914;-71
2021/03/14 00:43:55;;;;;;;0.83;0.80;;;19.70;42.70;;;;;;5070831;28;20481;-72
2021/03/14 00:46:21;;;;;;;1.93;0.73;;;19.70;42.70;;;;;;5069067;28;20493;-71
2021/03/14 00:48:47;;;;;;;0.60;0.60;;;19.70;42.50;;;;;;5064723;28;20545;-70
2021/03/14 00:51:14;;;;;;;1.17;0.77;;;19.80;42.50;;;;;;5084251;28;20500;-71
2021/03/14 00:53:40;;;;;;;0.50;0.50;;;19.80;42.40;;;;;;5094955;28;20477;-72
2021/03/14 00:56:07;;;;;;;0.80;0.80;;;19.80;42.30;;;;;;5079421;28;20477;-71
2021/03/14 00:58:33;;;;;;;1.13;0.70;;;19.80;42.30;;;;;;5071450;28;20556;-71
2021/03/14 01:00:59;;;;;;;0.60;0.60;;;19.90;42.30;;;;;;5071926;28;20484;-70
2021/03/14 01:03:25;;;;;;;2.20;0.60;;;19.90;42.30;;;;;;5057822;28;20497;-73
2021/03/14 01:05:51;;;;;;;1.00;0.50;;;19.90;42.20;;;;;;5086634;28;20484;-72
2021/03/14 01:08:19;;;;;;;1.00;0.80;;;19.90;42.30;;;;;;5069140;28;21550;-71
2021/03/14 01:10:45;;;;;;;0.97;0.70;;;19.90;42.20;;;;;;5073073;28;20469;-72
2021/03/14 01:13:11;;;;;;;1.20;0.80;;;19.90;42.30;;;;;;5070582;28;20473;-72
2021/03/14 01:15:37;;;;;;;0.80;0.70;;;19.80;42.20;;;;;;5073045;28;20488;-72
2021/03/14 01:18:04;;;;;;;0.53;0.53;;;19.80;42.40;;;;;;5074854;28;20478;-71
2021/03/14 01:20:30;;;;;;;2.80;0.97;;;19.80;42.30;;;;;;5073816;28;20477;-72
2021/03/14 01:22:56;;;;;;;1.43;0.70;;;19.80;42.40;;;;;;5073956;28;20488;-71
2021/03/14 01:25:23;;;;;;;3.63;0.67;;;19.80;42.40;;;;;;5075968;28;20488;-71
2021/03/14 01:27:49;;;;;;;2.77;0.50;;;19.80;42.50;;;;;;5073064;28;20468;-70
2021/03/14 01:30:16;;;;;;;0.80;0.50;;;19.80;42.50;;;;;;5074336;28;20602;-72
2021/03/14 01:32:43;;;;;;;1.70;1.60;;;19.70;42.30;;;;;;5074620;28;20481;-72
2021/03/14 01:35:10;;;;;;;1.10;0.83;;;19.70;42.40;;;;;;5072999;28;20474;-71
2021/03/14 01:37:36;;;;;;;0.80;0.70;;;19.70;42.40;;;;;;5073317;28;20488;-72
2021/03/14 01:40:03;;;;;;;1.40;0.90;;;19.70;42.40;;;;;;5077560;28;20477;-72
2021/03/14 01:42:31;;;;;;;1.57;0.70;;;19.70;42.40;;;;;;5076739;28;20518;-72
2021/03/14 01:44:57;;;;;;;1.10;0.53;;;19.70;42.30;;;;;;5068865;28;20476;-72
2021/03/14 01:47:29;;;;;;;4.80;0.53;;;19.80;42.40;;;;;;5069798;28;20480;-72
2021/03/14 01:49:55;;;;;;;1.00;0.70;;;19.80;42.40;;;;;;5071162;28;20510;-72
2021/03/14 01:52:22;;;;;;;1.30;0.60;;;19.80;42.40;;;;;;5072237;28;20488;-72
2021/03/14 01:54:48;;;;;;;1.00;0.70;;;19.80;42.50;;;;;;5074149;27;20487;-72
2021/03/14 01:57:15;;;;;;;1.17;0.80;;;19.80;42.50;;;;;;5072758;28;20545;-72
2021/03/14 01:59:42;;;;;;;0.50;0.50;;;19.80;42.40;;;;;;5074318;28;21031;-72
2021/03/14 02:02:08;;;;;;;3.90;0.50;;;19.70;42.40;;;;;;5065660;28;20525;-73
2021/03/14 02:04:34;;;;;;;3.03;0.97;;;19.70;42.40;;;;;;5085235;28;20489;-73
2021/03/14 02:07:01;;;;;;;0.90;0.63;;;19.70;42.40;;;;;;5071540;28;20504;-72
2021/03/14 02:09:27;;;;;;;1.10;0.50;;;19.70;42.40;;;;;;5073168;28;20482;-73
2021/03/14 02:11:53;;;;;;;0.90;0.73;;;19.70;42.40;;;;;;5077092;28;20465;-73
2021/03/14 02:14:19;;;;;;;1.47;0.60;;;19.70;42.40;;;;;;5073795;28;20489;-72
2021/03/14 02:16:46;;;;;;;1.50;0.60;;;19.70;42.40;;;;;;5073395;28;20498;-72
2021/03/14 02:19:23;;;;;;;0.90;0.90;;;19.70;42.40;;;;;;5072723;28;20996;-72
2021/03/14 02:21:49;;;;;;;0.67;0.67;;;19.70;42.40;;;;;;5062902;28;20472;-73
2021/03/14 02:24:16;;;;;;;2.23;0.70;;;19.70;42.40;;;;;;5072708;28;20477;-72
2021/03/14 02:26:51;;;;;;;1.60;0.77;;;19.70;42.50;;;;;;5075645;28;20487;-72
2021/03/14 02:29:18;;;;;;;1.67;0.70;;;19.70;42.50;;;;;;5060510;28;20500;-71
2021/03/14 02:31:45;;;;;;;1.63;0.87;;;19.70;42.50;;;;;;5092547;27;20475;-71
2021/03/14 02:34:13;;;;;;;1.17;0.80;;;19.70;42.50;;;;;;5075939;27;20546;-72
2021/03/14 02:36:42;;;;;;;1.07;0.50;;;19.70;42.40;;;;;;5069990;28;20477;-70
2021/03/14 02:39:10;;;;;;;0.60;0.40;;;19.70;42.30;;;;;;5071443;28;20473;-72
2021/03/14 02:41:36;;;;;;;1.77;1.50;;;19.70;42.40;;;;;;5077363;28;21083;-71
2021/03/14 02:44:04;;;;;;;2.80;0.80;;;19.70;42.40;;;;;;5071960;28;20485;-71
2021/03/14 02:46:30;;;;;;;1.03;0.70;;;19.70;42.40;;;;;;5069997;28;21439;-71
2021/03/14 02:48:56;;;;;;;3.93;1.10;;;19.70;42.40;;;;;;5078125;27;20496;-71
2021/03/14 02:51:22;;;;;;;2.63;1.10;;;19.70;42.40;;;;;;5080450;28;21056;-71
2021/03/14 02:53:48;;;;;;;1.07;0.90;;;19.70;42.40;;;;;;5074685;28;20468;-72
2021/03/14 02:56:15;;;;;;;3.70;1.07;;;19.70;42.40;;;;;;5072577;28;20477;-70
2021/03/14 02:58:41;;;;;;;4.57;0.90;;;19.70;42.40;;;;;;5074753;28;20481;-72
2021/03/14 03:01:08;;;;;;;0.63;0.63;;;19.70;42.40;;;;;;5068535;28;21149;-71
2021/03/14 03:03:34;;;;;;;1.00;0.90;;;19.70;42.30;;;;;;5083025;28;21030;-70
2021/03/14 03:06:00;;;;;;;0.87;0.70;;;19.70;42.30;;;;;;5094175;27;20485;-70
2021/03/14 03:08:27;;;;;;;3.60;1.00;;;19.70;42.20;;;;;;5067326;28;20482;-72
2021/03/14 03:10:54;;;;;;;2.10;1.00;;;19.70;42.20;;;;;;5074347;28;20472;-70
2021/03/14 03:13:20;;;;;;;5.20;1.10;;;19.70;42.10;;;;;;5068942;28;20494;-70
2021/03/14 03:15:46;;;;;;;1.47;0.80;;;19.70;42.10;;;;;;5081425;28;21005;-71
2021/03/14 03:18:14;;;;;;;6.23;1.50;;;19.70;42.20;;;;;;5078140;28;20479;-72
2021/03/14 03:20:40;;;;;;;1.20;1.10;;;19.70;42.30;;;;;;5074096;28;20841;-70
2021/03/14 03:23:06;;;;;;;0.93;0.60;;;19.70;42.30;;;;;;5070397;28;20546;-71
2021/03/14 03:25:32;;;;;;;1.70;1.07;;;19.70;42.30;;;;;;5074674;28;20492;-71
2021/03/14 03:27:58;;;;;;;0.70;0.60;;;19.70;42.30;;;;;;5071939;28;20478;-70
2021/03/14 03:30:26;;;;;;;2.70;0.97;;;19.70;42.20;;;;;;5073686;28;20534;-72
2021/03/14 03:32:53;;;;;;;0.93;0.57;;;19.70;42.20;;;;;;5071649;28;20560;-72
2021/03/14 03:35:20;;;;;;;1.70;0.63;;;19.70;42.10;;;;;;5071042;28;20473;-71
2021/03/14 03:37:47;;;;;;;0.80;0.60;;;19.70;42.00;;;;;;5070914;28;20487;-73
2021/03/14 03:40:15;;;;;;;1.87;0.83;;;19.70;42.00;;;;;;5076118;28;20849;-72
2021/03/14 03:42:46;;;;;;;1.67;0.83;;;19.70;42.00;;;;;;5073413;28;20510;-72
2021/03/14 03:45:13;;;;;;;4.73;1.10;;;19.70;42.00;;;;;;5077579;28;20485;-71
2021/03/14 03:47:41;;;;;;;0.60;0.60;;;19.70;42.10;;;;;;5071918;28;20489;-72
2021/03/14 03:50:08;;;;;;;1.27;0.93;;;19.70;42.10;;;;;;5073672;28;20489;-72
2021/03/14 03:52:36;;;;;;;2.63;1.17;;;19.60;42.00;;;;;;5070722;28;21687;-71
2021/03/14 03:55:02;;;;;;;3.33;1.00;;;19.60;42.00;;;;;;5071662;28;20488;-71
2021/03/14 03:57:28;;;;;;;2.60;0.83;;;19.60;42.00;;;;;;5071204;28;20488;-70
2021/03/14 03:59:54;;;;;;;3.03;0.80;;;19.60;42.00;;;;;;5071786;28;20507;-72
2021/03/14 04:02:22;;;;;;;0.60;0.50;;;19.60;42.00;;;;;;5069476;28;20489;-72
2021/03/14 04:04:48;;;;;;;1.13;0.77;;;19.60;42.10;;;;;;5069001;28;20477;-71
2021/03/14 04:07:14;;;;;;;4.67;1.30;;;19.60;42.00;;;;;;5081286;27;21069;-72
2021/03/14 04:09:43;;;;;;;1.30;1.20;;;19.60;42.00;;;;;;5082511;27;20649;-71
2021/03/14 04:12:10;;;;;;;1.03;0.70;;;19.70;42.00;;;;;;5071748;28;20478;-72
2021/03/14 04:14:36;;;;;;;2.70;0.87;;;19.60;42.00;;;;;;5076920;28;20973;-70
2021/03/14 04:17:03;;;;;;;1.47;1.03;;;19.60;42.00;;;;;;5070115;28;20493;-72
2021/03/14 04:19:29;;;;;;;1.40;0.93;;;19.60;42.00;;;;;;5073512;28;20489;-70
2021/03/14 04:21:55;;;;;;;1.40;0.70;;;19.70;42.10;;;;;;5070246;28;20503;-72
2021/03/14 04:24:21;;;;;;;2.83;0.70;;;19.60;42.10;;;;;;5073360;28;20918;-71
2021/03/14 04:26:48;;;;;;;0.80;0.70;;;19.60;42.10;;;;;;5072868;28;20860;-71
2021/03/14 04:29:15;;;;;;;1.00;0.70;;;19.60;42.00;;;;;;5069825;28;20489;-72
2021/03/14 04:31:42;;;;;;;1.23;1.13;;;19.60;42.00;;;;;;5069713;28;20488;-72
2021/03/14 04:34:09;;;;;;;2.67;0.90;;;19.60;42.10;;;;;;5093228;28;20527;-72
2021/03/14 04:36:35;;;;;;;2.30;0.67;;;19.60;42.00;;;;;;5080631;28;20480;-72
2021/03/14 04:39:02;;;;;;;3.70;0.73;;;19.60;42.00;;;;;;5077442;28;20519;-71
2021/03/14 04:41:28;;;;;;;2.00;1.10;;;19.60;42.00;;;;;;5083566;28;20547;-69
2021/03/14 04:43:55;;;;;;;1.53;1.00;;;19.60;42.00;;;;;;5100401;28;21438;-72
2021/03/14 04:46:21;;;;;;;1.90;0.70;;;19.60;42.10;;;;;;5069282;28;21046;-71
2021/03/14 04:48:47;;;;;;;3.10;0.80;;;19.60;42.10;;;;;;5079869;27;20477;-72
2021/03/14 04:51:13;;;;;;;0.83;0.83;;;19.60;42.10;;;;;;5079766;27;20484;-72
2021/03/14 04:53:40;;;;;;;2.50;1.20;;;19.60;42.10;;;;;;5098952;27;20496;-72
2021/03/14 04:56:06;;;;;;;1.73;1.07;;;19.60;42.10;;;;;;5075500;28;20486;-71
2021/03/14 04:58:32;;;;;;;4.47;1.53;;;19.60;42.00;;;;;;5076440;28;20485;-71
2021/03/14 05:01:01;;;;;;;7.30;1.57;;;19.60;42.10;;;;;;5074034;27;20499;-71
2021/03/14 05:03:28;;;;;;;5.60;1.33;;;19.60;42.00;;;;;;5096551;27;21300;-72
2021/03/14 05:05:54;;;;;;;2.20;1.23;;;19.60;42.00;;;;;;5076394;28;20500;-71
2021/03/14 05:08:21;;;;;;;3.17;0.80;;;19.60;42.00;;;;;;5072950;28;20476;-73
2021/03/14 05:10:48;;;;;;;1.83;0.90;;;19.60;42.00;;;;;;5075505;28;21066;-72
2021/03/14 05:13:14;;;;;;;2.00;1.07;;;19.60;42.00;;;;;;5073547;28;20492;-73
2021/03/14 05:15:41;;;;;;;2.77;0.90;;;19.60;42.10;;;;;;5077182;28;20477;-72
2021/03/14 05:18:09;;;;;;;1.07;0.67;;;19.60;42.10;;;;;;5073116;28;21088;-72
2021/03/14 05:20:35;;;;;;;1.57;1.10;;;19.60;42.10;;;;;;5075356;28;20491;-71
2021/03/14 05:23:01;;;;;;;2.40;1.40;;;19.60;42.10;;;;;;5073040;28;21011;-73
2021/03/14 05:25:28;;;;;;;1.87;1.20;;;19.60;42.00;;;;;;5073532;28;20478;-73
2021/03/14 05:27:54;;;;;;;3.70;1.17;;;19.70;42.10;;;;;;5075395;28;20481;-72
2021/03/14 05:30:21;;;;;;;1.43;0.73;;;19.70;42.00;;;;;;5072561;28;20485;-72
2021/03/14 05:32:48;;;;;;;5.47;0.87;;;19.70;42.00;;;;;;5074358;28;20469;-71
2021/03/14 05:35:15;;;;;;;3.70;0.93;;;19.60;42.10;;;;;;5091880;27;20486;-72
2021/03/14 05:37:41;;;;;;;3.37;1.20;;;19.60;42.00;;;;;;5076572;27;20479;-72
2021/03/14 05:40:08;;;;;;;2.83;1.40;;;19.60;42.10;;;;;;5085584;27;20476;-73
2021/03/14 05:42:34;;;;;;;1.87;1.40;;;19.60;42.10;;;;;;5088761;27;20477;-71
2021/03/14 05:45:01;;;;;;;4.13;1.53;;;19.60;42.10;;;;;;5073528;28;20533;-72
2021/03/14 05:47:27;;;;;;;4.00;1.07;;;19.60;42.20;;;;;;5074293;28;20497;-71
2021/03/14 05:49:53;;;;;;;1.50;1.10;;;19.60;42.20;;;;;;5076538;27;20482;-72
2021/03/14 05:52:20;;;;;;;1.50;0.97;;;19.60;42.10;;;;;;5092413;27;20563;-71
2021/03/14 05:54:46;;;;;;;3.60;1.23;;;19.50;42.10;;;;;;5078455;27;20474;-72
2021/03/14 05:57:13;;;;;;;1.80;1.20;;;19.60;42.20;;;;;;5091366;27;20993;-73
2021/03/14 05:59:39;;;;;;;1.53;1.10;;;19.60;42.10;;;;;;5075628;27;20479;-71
2021/03/14 06:02:05;;;;;;;4.47;1.20;;;19.60;42.00;;;;;;5093902;27;20476;-72
2021/03/14 06:04:31;;;;;;;2.40;1.00;;;19.60;41.90;;;;;;5073685;28;20511;-73
2021/03/14 06:06:58;;;;;;;2.50;1.43;;;19.60;41.90;;;;;;5075131;28;20469;-72
2021/03/14 06:09:25;;;;;;;2.70;1.30;;;19.70;42.00;;;;;;5075627;28;20496;-72
2021/03/14 06:11:51;;;;;;;2.53;0.90;;;19.70;42.00;;;;;;5074387;28;21680;-72
2021/03/14 06:14:17;;;;;;;2.03;1.40;;;19.60;41.90;;;;;;5074778;28;21001;-72
2021/03/14 06:16:44;;;;;;;4.00;1.30;;;19.60;41.90;;;;;;5076610;28;20572;-72
2021/03/14 06:19:10;;;;;;;7.10;1.17;;;19.60;41.80;;;;;;5072080;28;20568;-73
2021/03/14 06:21:36;;;;;;;4.40;1.17;;;19.60;41.60;;;;;;5066463;27;20473;-73
2021/03/14 06:24:03;;;;;;;6.43;1.07;;;19.60;41.60;;;;;;5098758;27;20488;-72
2021/03/14 06:26:35;;;;;;;5.30;1.53;;;19.60;41.60;;;;;;5073016;27;20846;-73
2021/03/14 06:29:21;;;;;;;4.73;1.13;;;19.60;41.50;;;;;;5074461;28;20492;-72
2021/03/14 06:31:48;;;;;;;2.63;1.43;;;19.70;42.30;;;;;;5074719;28;21663;-72
2021/03/14 06:34:24;;;;;;;2.40;1.00;;;19.70;41.40;;;;;;5067207;27;20498;-72
2021/03/14 06:36:50;;;;;;;3.80;1.57;;;19.60;41.60;;;;;;5096670;27;20877;-73
2021/03/14 06:39:21;;;;;;;3.10;1.10;;;19.60;41.70;;;;;;5074924;28;21506;-72
2021/03/14 06:41:48;;;;;;;6.30;1.37;;;19.60;41.90;;;;;;5074379;28;20480;-72
2021/03/14 06:44:21;;;;;;;2.90;1.43;;;19.60;42.00;;;;;;5073526;28;20493;-73
2021/03/14 06:46:48;;;;;;;1.80;1.10;;;19.60;41.90;;;;;;5072227;28;20476;-72
2021/03/14 06:49:17;;;;;;;3.47;2.30;;;19.60;41.80;;;;;;5072371;28;20878;-72
2021/03/14 06:51:45;;;;;;;4.37;1.30;;;19.60;41.90;;;;;;5071612;28;20617;-71
2021/03/14 06:54:19;;;;;;;3.10;1.47;;;19.60;42.10;;;;;;5090540;27;20486;-72
2021/03/14 06:56:58;;;;;;;4.73;1.33;;;19.50;42.10;;;;;;5076196;27;20483;-72
2021/03/14 06:59:24;;;;;;;3.17;1.10;;;19.50;42.20;;;;;;5060342;28;20895;-71
2021/03/14 07:01:57;;;;;;;7.17;2.10;;;19.50;42.20;;;;;;5070194;28;20534;-72
2021/03/14 07:04:40;;;;;;;7.43;1.63;;;19.50;42.20;;;;;;5059410;28;20477;-72
2021/03/14 07:07:11;;;;;;;3.20;1.27;;;19.50;42.20;;;;;;5071550;28;20494;-72
2021/03/14 07:09:37;;;;;;;2.20;1.00;;;19.50;42.20;;;;;;5074814;28;20469;-71
2021/03/14 07:12:14;;;;;;;3.30;1.00;;;19.50;42.10;;;;;;5069830;27;20480;-72
2021/03/14 07:14:40;;;;;;;2.77;1.23;;;19.60;42.30;;;;;;5091326;27;20491;-72
2021/03/14 07:17:06;;;;;;;5.77;2.60;;;19.60;42.00;;;;;;5073049;28;20873;-72
2021/03/14 07:19:33;;;;;;;2.17;1.07;;;19.60;42.00;;;;;;5075234;28;20489;-71
2021/03/14 07:22:03;;;;;;;3.70;1.23;;;19.60;41.90;;;;;;5072412;28;20480;-72
2021/03/14 07:24:34;;;;;;;1.30;1.20;;;19.70;42.00;;;;;;5071941;28;20486;-72
2021/03/14 07:27:00;;;;;;;1.90;1.00;;;19.60;41.90;;;;;;5072681;28;21019;-72
2021/03/14 07:29:28;;;;;;;3.00;1.07;;;19.60;41.80;;;;;;5072392;28;20485;-73
2021/03/14 07:31:54;;;;;;;9.23;1.13;;;19.60;41.80;;;;;;5066718;28;20484;-73
2021/03/14 07:34:30;;;;;;;2.83;1.20;;;19.60;41.80;;;;;;5089803;27;21119;-70
2021/03/14 07:36:56;;;;;;;2.53;1.03;;;19.60;41.80;;;;;;5083011;28;20679;-70
2021/03/14 07:39:22;;;;;;;1.90;0.90;;;19.60;42.00;;;;;;5091544;27;20477;-70
2021/03/14 07:41:48;;;;;;;8.93;1.30;;;19.50;42.10;;;;;;5073393;27;20519;-69
2021/03/14 07:44:17;;;;;;;1.43;0.80;;;19.50;42.00;;;;;;5070986;27;20914;-71
2021/03/14 07:46:43;;;;;;;4.60;1.40;;;19.50;42.10;;;;;;5071035;27;20477;-69
2021/03/14 07:49:12;;;;;;;3.33;1.40;;;19.50;42.20;;;;;;5071799;27;20489;-70
2021/03/14 07:51:39;;;;;;;5.37;1.50;;;19.50;42.10;;;;;;5061995;27;20532;-70
2021/03/14 07:54:06;;;;;;;5.47;2.13;;;19.50;42.10;;;;;;5066149;27;20482;-70
2021/03/14 07:56:34;;;;;;;1.10;1.10;;;19.50;42.10;;;;;;5072460;27;20987;-71
2021/03/14 07:59:00;;;;;;;3.27;1.17;;;19.50;42.10;;;;;;5070719;27;20494;-71
2021/03/14 08:01:27;;;;;;;3.77;1.20;;;19.50;42.10;;;;;;5064990;28;20903;-71
2021/03/14 08:03:54;;;;;;;4.23;1.00;;;19.50;42.20;;;;;;5072664;27;20531;-71
2021/03/14 08:06:54;;;;;;;1.70;1.00;;;19.50;42.00;;;;;;5065184;27;20625;-70
2021/03/14 08:09:54;;;;;;;4.53;1.13;;;19.60;42.00;;;;;;5012777;28;21099;-70
2021/03/14 08:12:24;;;;;;;4.40;1.23;;;19.60;41.90;;;;;;4938441;28;20484;-72
2021/03/14 08:14:54;;;;;;;4.73;1.30;;;19.50;42.00;;;;;;5043901;27;20483;-71
2021/03/14 08:17:21;;;;;;;9.53;1.07;;;19.60;41.90;;;;;;5085886;27;20574;-70
2021/03/14 08:19:48;;;;;;;4.87;1.67;;;19.60;41.90;;;;;;5070918;27;21012;-71
2021/03/14 08:22:46;;;;;;;2.13;0.97;;;19.60;41.90;;;;;;5073276;27;20490;-72
2021/03/14 08:25:37;;;;;;;8.10;1.80;;;19.50;41.90;;;;;;5078059;27;20577;-73
2021/03/14 08:28:31;;;;;;;2.10;1.17;;;19.50;41.90;;;;;;5088032;27;20471;-70
2021/03/14 08:30:58;;;;;;;5.37;1.70;;;19.50;42.20;;;;;;5048566;28;20501;-72
2021/03/14 08:33:31;;;;;;;3.20;1.30;;;19.40;42.30;;;;;;5048537;28;20978;-71
2021/03/14 08:35:58;;;;;;;2.20;1.23;;;19.40;42.40;;;;;;5058871;28;21036;-69
2021/03/14 08:38:30;;;;;;;1.30;1.20;;;19.40;42.40;;;;;;5059136;28;20476;-70
2021/03/14 08:41:26;;;;;;;1.50;0.80;;;19.40;42.40;;;;;;5059399;28;20485;-71
2021/03/14 08:43:54;;;;;;;1.07;1.07;;;19.50;42.40;;;;;;5061776;28;20500;-71
2021/03/14 08:46:20;;;;;;;3.37;1.20;;;19.40;42.30;;;;;;5056013;28;20509;-70
2021/03/14 08:48:46;;;;;;;3.80;1.40;;;19.40;42.30;;;;;;5054763;28;20477;-70
2021/03/14 08:51:12;;;;;;;2.47;1.40;;;19.40;42.30;;;;;;5057077;28;21078;-72
2021/03/14 08:53:39;;;;;;;7.13;1.30;;;19.40;42.30;;;;;;5055931;28;20489;-71
2021/03/14 08:56:06;;;;;;;2.50;1.13;;;19.40;42.30;;;;;;5053030;28;20496;-69
2021/03/14 08:58:32;;;;;;;2.47;1.60;;;19.40;42.30;;;;;;5055648;28;20490;-71
2021/03/14 09:01:04;;;;;;;2.43;1.03;;;19.50;42.40;;;;;;5054126;28;20483;-71
2021/03/14 09:03:30;;;;;;;3.17;1.33;;;19.50;42.20;;;;;;5056222;28;20485;-70
2021/03/14 09:06:25;;;;;;;1.73;1.30;;;19.50;42.20;;;;;;5061309;28;20485;-71
2021/03/14 09:08:54;;;;;;;1.23;1.00;;;19.50;42.20;;;;;;5059068;28;20465;-70
2021/03/14 09:11:35;;;;;;;2.77;1.40;;;19.50;42.20;;;;;;5055104;28;20992;-71
2021/03/14 09:14:32;;;;;;;1.23;0.73;;;19.60;42.10;;;;;;5055507;28;20512;-71
2021/03/14 09:17:00;;;;;;;4.13;1.40;;;19.70;42.10;;;;;;5047409;28;20466;-71
2021/03/14 09:19:31;;;;;;;2.27;0.70;;;19.70;41.90;;;;;;5059037;28;20476;-71
2021/03/14 09:21:58;;;;;;;1.43;0.90;;;19.70;41.90;;;;;;5049032;28;20477;-70
2021/03/14 09:24:34;;;;;;;1.47;0.80;;;19.60;41.90;;;;;;5040820;28;20480;-70
2021/03/14 09:27:01;;;;;;;4.17;0.93;;;19.50;42.10;;;;;;5049577;28;20966;-70
2021/03/14 09:29:38;;;;;;;6.00;0.80;;;19.50;42.20;;;;;;5056573;28;20915;-71
2021/03/14 09:32:13;;;;;;;1.37;0.90;;;19.40;42.10;;;;;;5052482;28;20477;-71
2021/03/14 09:34:40;;;;;;;4.50;0.87;;;19.50;42.10;;;;;;5055876;28;20480;-71
2021/03/14 09:37:06;;;;;;;1.60;1.17;;;19.50;42.00;;;;;;5055952;28;20556;-70
2021/03/14 09:39:33;;;;;;;2.60;0.90;;;19.50;42.00;;;;;;5055481;28;21250;-71
2021/03/14 09:41:59;;;;;;;1.40;0.80;;;19.50;42.10;;;;;;5053666;28;20494;-71
2021/03/14 09:44:25;;;;;;;2.53;0.87;;;19.60;42.00;;;;;;5051308;28;20482;-71
2021/03/14 09:46:53;;;;;;;3.83;1.10;;;19.50;42.10;;;;;;5054192;28;21260;-70
2021/03/14 09:49:19;;;;;;;3.57;1.33;;;19.50;42.20;;;;;;5053863;28;20515;-71
2021/03/14 09:51:50;;;;;;;1.93;1.50;;;19.50;42.20;;;;;;5054208;28;20494;-70
2021/03/14 09:54:16;;;;;;;2.70;0.80;;;19.50;42.20;;;;;;5054035;28;20500;-71
2021/03/14 09:56:49;;;;;;;1.90;0.90;;;19.50;42.20;;;;;;5044566;28;20493;-72
2021/03/14 09:59:19;;;;;;;4.30;1.53;;;19.50;42.20;;;;;;5079369;28;20517;-71
2021/03/14 10:01:48;;;;;;;3.70;1.13;;;19.60;42.20;;;;;;5053789;28;20541;-71
2021/03/14 10:04:14;;;;;;;2.73;1.10;;;19.50;42.20;;;;;;5054061;28;20598;-72
2021/03/14 10:06:40;;;;;;;2.47;1.90;;;19.50;42.20;;;;;;5069536;28;20489;-71
2021/03/14 10:09:06;;;;;;;3.13;1.73;;;19.50;42.30;;;;;;5054626;28;20494;-72
2021/03/14 10:11:32;;;;;;;5.27;1.57;;;19.50;42.20;;;;;;5050140;28;20486;-71
2021/03/14 10:13:59;;;;;;;3.00;1.23;;;19.60;43.10;;;;;;5048264;28;20490;-72
2021/03/14 10:16:25;;;;;;;2.47;1.07;;;19.60;42.20;;;;;;5053489;28;20485;-71
2021/03/14 10:18:51;;;;;;;2.60;1.00;;;19.60;42.20;;;;;;5052825;28;20474;-71
2021/03/14 10:21:19;;;;;;;3.20;1.20;;;19.70;42.30;;;;;;5048378;28;20484;-70
2021/03/14 10:23:45;;;;;;;2.57;0.97;;;19.70;42.30;;;;;;5071465;28;20469;-71
2021/03/14 10:26:12;;;;;;;1.63;0.80;;;19.70;42.40;;;;;;5057604;28;20481;-72
2021/03/14 10:28:38;;;;;;;3.70;1.23;;;19.70;42.40;;;;;;5064304;28;20592;-71
2021/03/14 10:31:06;;;;;;;7.90;0.83;;;19.70;42.40;;;;;;5061398;28;20881;-70
2021/03/14 10:33:34;;;;;;;1.63;0.80;;;19.70;42.40;;;;;;5052316;28;20569;-71
2021/03/14 10:36:01;;;;;;;5.07;0.97;;;19.70;42.40;;;;;;5049979;28;20478;-72
2021/03/14 10:38:27;;;;;;;3.73;1.07;;;19.70;42.40;;;;;;5051892;28;20481;-71
2021/03/14 10:41:09;;;;;;;6.53;3.80;;;19.80;42.40;;;;;;5053012;28;20496;-70
2021/03/14 10:43:43;;;;;;;2.00;1.17;;;19.80;42.50;;;;;;5052115;28;20497;-72
2021/03/14 10:46:10;;;;;;;1.90;0.70;;;19.90;42.40;;;;;;5050191;28;22258;-71
2021/03/14 10:48:37;;;;;;;1.13;0.87;;;19.80;42.40;;;;;;5044599;28;20838;-72
2021/03/14 10:51:04;;;;;;;2.83;0.97;;;19.80;42.40;;;;;;5070227;28;21095;-71
2021/03/14 10:53:30;;;;;;;2.50;0.93;;;19.80;42.50;;;;;;5063035;28;20483;-70
2021/03/14 10:56:04;;;;;;;4.60;0.90;;;19.70;42.60;;;;;;5053846;28;21252;-71
2021/03/14 10:58:38;;;;;;;2.10;0.90;;;19.70;42.70;;;;;;5039139;28;20499;-71
2021/03/14 11:01:06;;;;;;;3.27;1.17;;;19.70;42.70;;;;;;5051119;28;20908;-71
2021/03/14 11:03:37;;;;;;;1.73;1.20;;;19.80;42.60;;;;;;5049442;28;21798;-71
2021/03/14 11:06:13;;;;;;;5.00;1.50;;;19.80;42.60;;;;;;5055160;28;20577;-71
2021/03/14 11:08:50;;;;;;;1.70;1.10;;;19.80;42.60;;;;;;5047964;28;20484;-70
2021/03/14 11:11:17;;;;;;;2.43;1.07;;;19.80;42.60;;;;;;5053598;28;20491;-71
2021/03/14 11:13:43;;;;;;;1.83;1.10;;;19.80;42.60;;;;;;5051350;28;20490;-71
2021/03/14 11:16:09;;;;;;;1.57;0.80;;;19.80;42.60;;;;;;5055969;28;20514;-71
2021/03/14 11:18:36;;;;;;;2.40;1.10;;;19.80;42.70;;;;;;5053766;28;20534;-73
2021/03/14 11:21:03;;;;;;;2.37;1.13;;;19.80;42.80;;;;;;5054946;28;21015;-70
2021/03/14 11:23:29;;;;;;;1.87;0.87;;;19.80;42.80;;;;;;5054239;28;20564;-72
2021/03/14 11:25:55;;;;;;;3.20;1.70;;;19.80;42.80;;;;;;5052034;28;20478;-71
2021/03/14 11:28:21;;;;;;;1.83;1.17;;;19.80;42.80;;;;;;5052978;28;20477;-71
2021/03/14 11:30:47;;;;;;;1.77;0.90;;;19.70;42.90;;;;;;5051809;28;21032;-71
2021/03/14 11:33:13;;;;;;;1.10;0.70;;;19.70;42.90;;;;;;5053740;28;20821;-72
2021/03/14 11:35:41;;;;;;;4.67;1.00;;;19.70;42.90;;;;;;5052428;28;20470;-71
2021/03/14 11:38:07;;;;;;;0.60;0.60;;;19.70;42.90;;;;;;5050162;28;20482;-72
2021/03/14 11:40:33;;;;;;;2.90;1.30;;;19.70;43.00;;;;;;5054709;28;20948;-71
2021/03/14 11:42:59;;;;;;;3.20;0.90;;;19.70;43.00;;;;;;5052517;28;21655;-71
2021/03/14 11:45:25;;;;;;;2.53;0.90;;;19.70;42.90;;;;;;5053097;28;20523;-72
2021/03/14 11:47:51;;;;;;;2.10;1.20;;;19.70;43.00;;;;;;5051990;28;20477;-72
2021/03/14 11:50:17;;;;;;;1.27;1.00;;;19.70;43.10;;;;;;5053703;28;20485;-71
2021/03/14 11:52:49;;;;;;;2.03;0.90;;;19.60;43.00;;;;;;5053397;28;20986;-71
2021/03/14 11:55:15;;;;;;;3.73;1.60;;;19.70;43.20;;;;;;5052167;28;20953;-71
2021/03/14 11:57:41;;;;;;;3.00;1.17;;;19.70;43.00;;;;;;5052384;28;21012;-71
2021/03/14 12:00:08;;;;;;;2.00;1.03;;;19.70;43.00;;;;;;5054639;28;20494;-72
2021/03/14 12:02:35;;;;;;;1.73;1.03;;;19.70;43.00;;;;;;5057861;28;20498;-71
2021/03/14 12:05:01;;;;;;;1.80;1.00;;;19.70;43.10;;;;;;5062210;28;20486;-72
2021/03/14 12:07:28;;;;;;;3.30;1.10;;;19.70;43.20;;;;;;5056272;28;21555;-71
2021/03/14 12:09:55;;;;;;;3.90;1.10;;;19.60;43.10;;;;;;5054764;28;20482;-71
2021/03/14 12:12:21;;;;;;;2.40;0.63;;;19.60;43.10;;;;;;5048585;28;21543;-72
2021/03/14 12:14:47;;;;;;;1.37;0.70;;;19.70;43.10;;;;;;5067253;28;20497;-71
2021/03/14 12:17:14;;;;;;;2.87;1.20;;;19.70;43.00;;;;;;5050110;28;20485;-72
2021/03/14 12:19:40;;;;;;;2.63;0.90;;;19.70;43.00;;;;;;5049624;28;20477;-70
2021/03/14 12:22:07;;;;;;;0.70;0.57;;;19.80;42.90;;;;;;5062277;28;20515;-71
2021/03/14 12:24:34;;;;;;;1.63;0.80;;;19.80;42.90;;;;;;5070218;28;21171;-70
2021/03/14 12:27:01;;;;;;;3.20;0.80;;;19.80;42.80;;;;;;5069618;28;20487;-71
2021/03/14 12:29:27;;;;;;;1.60;1.07;;;19.80;42.90;;;;;;5062173;28;20485;-72
2021/03/14 12:31:53;;;;;;;1.63;1.03;;;19.80;42.90;;;;;;5056591;28;20480;-71
2021/03/14 12:34:19;;;;;;;3.87;1.20;;;19.70;43.00;;;;;;5054552;28;20485;-71
2021/03/14 12:36:45;;;;;;;1.10;1.00;;;19.60;42.80;;;;;;5055671;28;20481;-71
2021/03/14 12:39:11;;;;;;;2.43;1.17;;;19.70;43.10;;;;;;5055949;28;20485;-72
2021/03/14 12:41:38;;;;;;;1.73;0.87;;;19.70;43.10;;;;;;5058411;28;20474;-71
2021/03/14 12:44:06;;;;;;;1.47;0.70;;;19.60;43.00;;;;;;5054677;28;20538;-71
2021/03/14 12:46:32;;;;;;;3.07;1.10;;;19.60;42.90;;;;;;5059817;28;20508;-71
2021/03/14 12:48:58;;;;;;;3.60;1.43;;;19.60;43.00;;;;;;5058488;28;20554;-71
2021/03/14 12:51:24;;;;;;;2.40;1.00;;;19.60;42.90;;;;;;5057599;28;20590;-71
2021/03/14 12:53:50;;;;;;;2.23;1.13;;;19.60;42.80;;;;;;5057730;28;20547;-70